sensor_id;sensor_type;location;lat;lon;timestamp;P1;durP1;ratioP1;P2;durP2;ratioP2
13269;SDS011;6703;51.994;7.570;2023-04-24T00:01:11;2.50;;;1.07;;
13269;SDS011;6703;51.994;7.570;2023-04-24T00:03:39;2.40;;;1.13;;
13269;SDS011;6703;51.994;7.570;2023-04-24T00:06:07;1.65;;;0.98;;
13269;SDS011;6703;51.994;7.570;2023-04-24T00:08:35;1.83;;;1.10;;
13269;SDS011;6703;51.994;7.570;2023-04-24T00:11:03;2.78;;;1.00;;
13269;SDS011;6703;51.994;7.570;2023-04-24T00:13:31;1.80;;;1.00;;
13269;SDS011;6703;51.994;7.570;2023-04-24T00:15:59;2.85;;;0.98;;
13269;SDS011;6703;51.994;7.570;2023-04-24T00:18:28;4.10;;;0.90;;
13269;SDS011;6703;51.994;7.570;2023-04-24T00:20:56;2.40;;;0.90;;
13269;SDS011;6703;51.994;7.570;2023-04-24T00:23:24;2.33;;;1.00;;
13269;SDS011;6703;51.994;7.570;2023-04-24T00:25:52;1.30;;;0.87;;
13269;SDS011;6703;51.994;7.570;2023-04-24T00:28:20;1.70;;;0.80;;
13269;SDS011;6703;51.994;7.570;2023-04-24T00:30:48;3.50;;;0.90;;
13269;SDS011;6703;51.994;7.570;2023-04-24T00:33:16;2.83;;;0.90;;
13269;SDS011;6703;51.994;7.570;2023-04-24T00:35:45;4.03;;;0.90;;
13269;SDS011;6703;51.994;7.570;2023-04-24T00:38:13;0.90;;;0.70;;
13269;SDS011;6703;51.994;7.570;2023-04-24T00:40:41;1.45;;;0.85;;
13269;SDS011;6703;51.994;7.570;2023-04-24T00:43:08;5.40;;;0.70;;
13269;SDS011;6703;51.994;7.570;2023-04-24T00:45:36;2.47;;;0.77;;
13269;SDS011;6703;51.994;7.570;2023-04-24T00:48:04;2.45;;;0.85;;
13269;SDS011;6703;51.994;7.570;2023-04-24T00:50:32;2.85;;;0.80;;
13269;SDS011;6703;51.994;7.570;2023-04-24T00:53:01;1.20;;;0.90;;
13269;SDS011;6703;51.994;7.570;2023-04-24T00:55:29;1.90;;;0.80;;
13269;SDS011;6703;51.994;7.570;2023-04-24T00:57:57;1.90;;;0.80;;
13269;SDS011;6703;51.994;7.570;2023-04-24T01:00:26;1.40;;;0.60;;
13269;SDS011;6703;51.994;7.570;2023-04-24T01:02:53;2.70;;;0.85;;
13269;SDS011;6703;51.994;7.570;2023-04-24T01:05:22;2.45;;;0.90;;
13269;SDS011;6703;51.994;7.570;2023-04-24T01:07:50;2.95;;;0.90;;
13269;SDS011;6703;51.994;7.570;2023-04-24T01:10:19;2.95;;;0.95;;
13269;SDS011;6703;51.994;7.570;2023-04-24T01:12:47;0.98;;;0.65;;
13269;SDS011;6703;51.994;7.570;2023-04-24T01:15:15;1.35;;;0.77;;
13269;SDS011;6703;51.994;7.570;2023-04-24T01:17:44;1.00;;;0.63;;
13269;SDS011;6703;51.994;7.570;2023-04-24T01:20:12;0.90;;;0.60;;
13269;SDS011;6703;51.994;7.570;2023-04-24T01:22:43;0.85;;;0.70;;
13269;SDS011;6703;51.994;7.570;2023-04-24T01:25:11;1.48;;;0.82;;
13269;SDS011;6703;51.994;7.570;2023-04-24T01:27:38;1.35;;;0.80;;
13269;SDS011;6703;51.994;7.570;2023-04-24T01:30:07;2.25;;;0.90;;
13269;SDS011;6703;51.994;7.570;2023-04-24T01:32:36;2.22;;;1.00;;
13269;SDS011;6703;51.994;7.570;2023-04-24T01:35:05;4.10;;;1.02;;
13269;SDS011;6703;51.994;7.570;2023-04-24T01:37:34;2.10;;;0.90;;
13269;SDS011;6703;51.994;7.570;2023-04-24T01:40:05;3.33;;;1.20;;
13269;SDS011;6703;51.994;7.570;2023-04-24T01:42:34;2.25;;;1.00;;
13269;SDS011;6703;51.994;7.570;2023-04-24T01:45:02;3.28;;;1.10;;
13269;SDS011;6703;51.994;7.570;2023-04-24T01:47:31;1.50;;;1.20;;
13269;SDS011;6703;51.994;7.570;2023-04-24T01:49:59;7.03;;;1.40;;
13269;SDS011;6703;51.994;7.570;2023-04-24T01:52:27;2.00;;;1.15;;
13269;SDS011;6703;51.994;7.570;2023-04-24T01:54:59;2.88;;;1.10;;
13269;SDS011;6703;51.994;7.570;2023-04-24T01:57:28;4.88;;;1.13;;
13269;SDS011;6703;51.994;7.570;2023-04-24T01:59:56;1.73;;;1.02;;
13269;SDS011;6703;51.994;7.570;2023-04-24T02:02:24;1.25;;;1.00;;
13269;SDS011;6703;51.994;7.570;2023-04-24T02:04:54;1.60;;;1.03;;
13269;SDS011;6703;51.994;7.570;2023-04-24T02:07:21;1.80;;;0.90;;
13269;SDS011;6703;51.994;7.570;2023-04-24T02:09:49;4.27;;;1.40;;
13269;SDS011;6703;51.994;7.570;2023-04-24T02:12:17;1.90;;;1.30;;
13269;SDS011;6703;51.994;7.570;2023-04-24T02:14:46;3.55;;;1.30;;
13269;SDS011;6703;51.994;7.570;2023-04-24T02:17:13;3.15;;;1.17;;
13269;SDS011;6703;51.994;7.570;2023-04-24T02:19:42;3.30;;;1.30;;
13269;SDS011;6703;51.994;7.570;2023-04-24T02:22:23;2.40;;;1.50;;
13269;SDS011;6703;51.994;7.570;2023-04-24T02:24:51;1.85;;;1.27;;
13269;SDS011;6703;51.994;7.570;2023-04-24T02:27:19;4.70;;;1.45;;
13269;SDS011;6703;51.994;7.570;2023-04-24T02:29:48;1.80;;;1.33;;
13269;SDS011;6703;51.994;7.570;2023-04-24T02:32:16;4.07;;;1.73;;
13269;SDS011;6703;51.994;7.570;2023-04-24T02:34:44;3.17;;;1.30;;
13269;SDS011;6703;51.994;7.570;2023-04-24T02:37:11;5.28;;;1.90;;
13269;SDS011;6703;51.994;7.570;2023-04-24T02:39:39;4.22;;;2.15;;
13269;SDS011;6703;51.994;7.570;2023-04-24T02:42:07;4.35;;;1.85;;
13269;SDS011;6703;51.994;7.570;2023-04-24T02:44:36;3.78;;;2.00;;
13269;SDS011;6703;51.994;7.570;2023-04-24T02:47:05;3.30;;;1.85;;
13269;SDS011;6703;51.994;7.570;2023-04-24T02:49:33;5.68;;;2.30;;
13269;SDS011;6703;51.994;7.570;2023-04-24T02:52:01;6.45;;;2.70;;
13269;SDS011;6703;51.994;7.570;2023-04-24T02:54:29;7.75;;;3.25;;
13269;SDS011;6703;51.994;7.570;2023-04-24T02:56:57;5.10;;;2.88;;
13269;SDS011;6703;51.994;7.570;2023-04-24T02:59:25;5.33;;;3.43;;
13269;SDS011;6703;51.994;7.570;2023-04-24T03:01:53;6.45;;;3.78;;
13269;SDS011;6703;51.994;7.570;2023-04-24T03:04:22;9.30;;;4.22;;
13269;SDS011;6703;51.994;7.570;2023-04-24T03:06:51;8.18;;;4.13;;
13269;SDS011;6703;51.994;7.570;2023-04-24T03:09:21;7.60;;;4.70;;
13269;SDS011;6703;51.994;7.570;2023-04-24T03:11:48;10.02;;;4.07;;
13269;SDS011;6703;51.994;7.570;2023-04-24T03:14:16;8.70;;;4.30;;
13269;SDS011;6703;51.994;7.570;2023-04-24T03:16:44;8.50;;;4.90;;
13269;SDS011;6703;51.994;7.570;2023-04-24T03:19:12;9.68;;;5.70;;
13269;SDS011;6703;51.994;7.570;2023-04-24T03:21:42;11.57;;;5.50;;
13269;SDS011;6703;51.994;7.570;2023-04-24T03:24:09;9.18;;;5.55;;
13269;SDS011;6703;51.994;7.570;2023-04-24T03:26:37;9.83;;;5.90;;
13269;SDS011;6703;51.994;7.570;2023-04-24T03:29:05;10.90;;;5.25;;
13269;SDS011;6703;51.994;7.570;2023-04-24T03:31:32;13.18;;;6.50;;
13269;SDS011;6703;51.994;7.570;2023-04-24T03:34:03;10.32;;;5.38;;
13269;SDS011;6703;51.994;7.570;2023-04-24T03:36:31;13.52;;;5.78;;
13269;SDS011;6703;51.994;7.570;2023-04-24T03:39:00;13.20;;;6.30;;
13269;SDS011;6703;51.994;7.570;2023-04-24T03:41:29;13.97;;;7.57;;
13269;SDS011;6703;51.994;7.570;2023-04-24T03:43:57;13.85;;;7.25;;
13269;SDS011;6703;51.994;7.570;2023-04-24T03:46:25;14.33;;;7.63;;
13269;SDS011;6703;51.994;7.570;2023-04-24T03:48:53;18.75;;;8.90;;
13269;SDS011;6703;51.994;7.570;2023-04-24T03:51:20;16.47;;;8.63;;
13269;SDS011;6703;51.994;7.570;2023-04-24T03:56:39;17.65;;;9.15;;
13269;SDS011;6703;51.994;7.570;2023-04-24T03:59:07;17.95;;;9.45;;
13269;SDS011;6703;51.994;7.570;2023-04-24T04:01:35;18.05;;;9.35;;
13269;SDS011;6703;51.994;7.570;2023-04-24T04:04:03;22.50;;;9.93;;
13269;SDS011;6703;51.994;7.570;2023-04-24T04:06:31;18.52;;;10.10;;
13269;SDS011;6703;51.994;7.570;2023-04-24T04:08:59;16.83;;;9.93;;
13269;SDS011;6703;51.994;7.570;2023-04-24T04:11:28;18.23;;;9.50;;
13269;SDS011;6703;51.994;7.570;2023-04-24T04:13:56;19.75;;;9.82;;
13269;SDS011;6703;51.994;7.570;2023-04-24T04:16:24;19.35;;;10.57;;
13269;SDS011;6703;51.994;7.570;2023-04-24T04:18:52;19.67;;;9.35;;
13269;SDS011;6703;51.994;7.570;2023-04-24T04:21:19;19.98;;;10.85;;
13269;SDS011;6703;51.994;7.570;2023-04-24T04:23:47;18.85;;;9.80;;
13269;SDS011;6703;51.994;7.570;2023-04-24T04:26:15;20.80;;;10.10;;
13269;SDS011;6703;51.994;7.570;2023-04-24T04:28:46;22.52;;;10.45;;
13269;SDS011;6703;51.994;7.570;2023-04-24T04:31:15;19.27;;;10.80;;
13269;SDS011;6703;51.994;7.570;2023-04-24T04:33:43;21.17;;;10.50;;
13269;SDS011;6703;51.994;7.570;2023-04-24T04:36:10;20.23;;;10.48;;
13269;SDS011;6703;51.994;7.570;2023-04-24T04:38:38;19.17;;;10.00;;
13269;SDS011;6703;51.994;7.570;2023-04-24T04:41:08;21.77;;;9.73;;
13269;SDS011;6703;51.994;7.570;2023-04-24T04:43:35;23.27;;;11.32;;
13269;SDS011;6703;51.994;7.570;2023-04-24T04:46:07;23.45;;;10.85;;
13269;SDS011;6703;51.994;7.570;2023-04-24T04:48:37;24.13;;;11.20;;
13269;SDS011;6703;51.994;7.570;2023-04-24T04:51:05;24.17;;;11.83;;
13269;SDS011;6703;51.994;7.570;2023-04-24T04:53:33;28.60;;;12.35;;
13269;SDS011;6703;51.994;7.570;2023-04-24T04:56:01;25.77;;;11.50;;
13269;SDS011;6703;51.994;7.570;2023-04-24T04:58:29;24.38;;;12.40;;
13269;SDS011;6703;51.994;7.570;2023-04-24T05:00:56;25.02;;;12.82;;
13269;SDS011;6703;51.994;7.570;2023-04-24T05:03:26;29.70;;;13.07;;
13269;SDS011;6703;51.994;7.570;2023-04-24T05:05:54;26.83;;;12.52;;
13269;SDS011;6703;51.994;7.570;2023-04-24T05:08:22;28.38;;;13.15;;
13269;SDS011;6703;51.994;7.570;2023-04-24T05:10:53;24.83;;;12.43;;
13269;SDS011;6703;51.994;7.570;2023-04-24T05:13:21;27.08;;;12.85;;
13269;SDS011;6703;51.994;7.570;2023-04-24T05:16:04;28.57;;;13.40;;
13269;SDS011;6703;51.994;7.570;2023-04-24T05:18:34;28.75;;;13.30;;
13269;SDS011;6703;51.994;7.570;2023-04-24T05:21:02;27.67;;;13.15;;
13269;SDS011;6703;51.994;7.570;2023-04-24T05:23:29;24.63;;;12.50;;
13269;SDS011;6703;51.994;7.570;2023-04-24T05:25:57;32.33;;;14.13;;
13269;SDS011;6703;51.994;7.570;2023-04-24T05:28:25;30.75;;;13.77;;
13269;SDS011;6703;51.994;7.570;2023-04-24T05:30:54;26.60;;;14.35;;
13269;SDS011;6703;51.994;7.570;2023-04-24T05:33:23;26.77;;;13.60;;
13269;SDS011;6703;51.994;7.570;2023-04-24T05:36:05;30.63;;;13.38;;
13269;SDS011;6703;51.994;7.570;2023-04-24T05:38:33;31.85;;;14.02;;
13269;SDS011;6703;51.994;7.570;2023-04-24T05:41:01;30.65;;;13.48;;
13269;SDS011;6703;51.994;7.570;2023-04-24T05:43:29;26.98;;;12.88;;
13269;SDS011;6703;51.994;7.570;2023-04-24T05:45:56;29.90;;;13.43;;
13269;SDS011;6703;51.994;7.570;2023-04-24T05:48:24;26.67;;;12.68;;
13269;SDS011;6703;51.994;7.570;2023-04-24T05:50:52;24.67;;;12.27;;
13269;SDS011;6703;51.994;7.570;2023-04-24T05:53:22;25.52;;;11.82;;
13269;SDS011;6703;51.994;7.570;2023-04-24T05:55:49;24.10;;;12.13;;
13269;SDS011;6703;51.994;7.570;2023-04-24T05:58:17;25.17;;;11.98;;
13269;SDS011;6703;51.994;7.570;2023-04-24T06:00:45;25.83;;;12.50;;
13269;SDS011;6703;51.994;7.570;2023-04-24T06:03:13;24.20;;;12.00;;
13269;SDS011;6703;51.994;7.570;2023-04-24T06:05:42;25.20;;;11.43;;
13269;SDS011;6703;51.994;7.570;2023-04-24T06:08:09;22.10;;;10.48;;
13269;SDS011;6703;51.994;7.570;2023-04-24T06:10:39;19.02;;;10.57;;
13269;SDS011;6703;51.994;7.570;2023-04-24T06:15:52;22.88;;;11.00;;
13269;SDS011;6703;51.994;7.570;2023-04-24T06:18:20;23.77;;;10.95;;
13269;SDS011;6703;51.994;7.570;2023-04-24T06:20:48;20.88;;;10.63;;
13269;SDS011;6703;51.994;7.570;2023-04-24T06:23:16;25.63;;;11.02;;
13269;SDS011;6703;51.994;7.570;2023-04-24T06:25:45;17.65;;;9.80;;
13269;SDS011;6703;51.994;7.570;2023-04-24T06:28:13;18.97;;;10.13;;
13269;SDS011;6703;51.994;7.570;2023-04-24T06:30:41;24.25;;;10.40;;
13269;SDS011;6703;51.994;7.570;2023-04-24T06:33:09;21.80;;;10.67;;
13269;SDS011;6703;51.994;7.570;2023-04-24T06:35:47;21.15;;;10.55;;
13269;SDS011;6703;51.994;7.570;2023-04-24T06:38:14;24.35;;;11.43;;
13269;SDS011;6703;51.994;7.570;2023-04-24T06:40:42;27.70;;;10.90;;
13269;SDS011;6703;51.994;7.570;2023-04-24T06:43:12;21.50;;;10.13;;
13269;SDS011;6703;51.994;7.570;2023-04-24T06:45:41;22.42;;;10.57;;
13269;SDS011;6703;51.994;7.570;2023-04-24T06:48:10;18.02;;;9.90;;
13269;SDS011;6703;51.994;7.570;2023-04-24T06:50:38;19.92;;;10.73;;
13269;SDS011;6703;51.994;7.570;2023-04-24T06:53:05;17.58;;;10.23;;
13269;SDS011;6703;51.994;7.570;2023-04-24T06:55:34;15.52;;;9.38;;
13269;SDS011;6703;51.994;7.570;2023-04-24T06:58:03;18.77;;;9.95;;
13269;SDS011;6703;51.994;7.570;2023-04-24T07:00:32;17.15;;;9.10;;
13269;SDS011;6703;51.994;7.570;2023-04-24T07:03:36;15.60;;;8.88;;
13269;SDS011;6703;51.994;7.570;2023-04-24T07:06:05;14.88;;;8.27;;
13269;SDS011;6703;51.994;7.570;2023-04-24T07:08:35;14.10;;;8.05;;
13269;SDS011;6703;51.994;7.570;2023-04-24T07:11:03;14.88;;;8.18;;
13269;SDS011;6703;51.994;7.570;2023-04-24T07:13:31;15.68;;;7.97;;
13269;SDS011;6703;51.994;7.570;2023-04-24T07:16:03;14.52;;;8.20;;
13269;SDS011;6703;51.994;7.570;2023-04-24T07:18:30;14.90;;;8.23;;
13269;SDS011;6703;51.994;7.570;2023-04-24T07:21:13;15.55;;;8.88;;
13269;SDS011;6703;51.994;7.570;2023-04-24T07:23:41;15.73;;;9.73;;
13269;SDS011;6703;51.994;7.570;2023-04-24T07:26:09;14.75;;;8.75;;
13269;SDS011;6703;51.994;7.570;2023-04-24T07:28:37;14.77;;;8.77;;
13269;SDS011;6703;51.994;7.570;2023-04-24T07:31:06;15.38;;;8.75;;
13269;SDS011;6703;51.994;7.570;2023-04-24T07:33:36;18.63;;;8.95;;
13269;SDS011;6703;51.994;7.570;2023-04-24T07:36:04;14.65;;;8.50;;
13269;SDS011;6703;51.994;7.570;2023-04-24T07:38:31;16.15;;;8.60;;
13269;SDS011;6703;51.994;7.570;2023-04-24T07:41:12;15.55;;;8.60;;
13269;SDS011;6703;51.994;7.570;2023-04-24T07:43:40;16.40;;;8.27;;
13269;SDS011;6703;51.994;7.570;2023-04-24T07:46:10;15.02;;;8.30;;
13269;SDS011;6703;51.994;7.570;2023-04-24T07:48:37;15.98;;;8.35;;
13269;SDS011;6703;51.994;7.570;2023-04-24T07:51:05;15.40;;;8.07;;
13269;SDS011;6703;51.994;7.570;2023-04-24T07:53:34;14.98;;;8.32;;
13269;SDS011;6703;51.994;7.570;2023-04-24T07:56:02;15.60;;;7.63;;
13269;SDS011;6703;51.994;7.570;2023-04-24T07:58:30;11.70;;;7.00;;
13269;SDS011;6703;51.994;7.570;2023-04-24T08:00:57;14.23;;;7.70;;
13269;SDS011;6703;51.994;7.570;2023-04-24T08:03:26;12.85;;;7.07;;
13269;SDS011;6703;51.994;7.570;2023-04-24T08:05:54;10.82;;;6.85;;
13269;SDS011;6703;51.994;7.570;2023-04-24T08:08:22;13.50;;;7.00;;
13269;SDS011;6703;51.994;7.570;2023-04-24T08:10:54;10.50;;;6.27;;
13269;SDS011;6703;51.994;7.570;2023-04-24T08:13:22;9.15;;;5.70;;
13269;SDS011;6703;51.994;7.570;2023-04-24T08:15:49;11.27;;;6.22;;
13269;SDS011;6703;51.994;7.570;2023-04-24T08:18:17;10.63;;;5.70;;
13269;SDS011;6703;51.994;7.570;2023-04-24T08:20:46;8.55;;;5.13;;
13269;SDS011;6703;51.994;7.570;2023-04-24T08:23:14;8.60;;;5.43;;
13269;SDS011;6703;51.994;7.570;2023-04-24T08:25:42;9.20;;;5.63;;
13269;SDS011;6703;51.994;7.570;2023-04-24T08:28:10;10.90;;;5.50;;
13269;SDS011;6703;51.994;7.570;2023-04-24T08:30:39;11.67;;;5.43;;
13269;SDS011;6703;51.994;7.570;2023-04-24T08:33:07;9.32;;;5.78;;
13269;SDS011;6703;51.994;7.570;2023-04-24T08:35:35;10.00;;;5.63;;
13269;SDS011;6703;51.994;7.570;2023-04-24T08:38:04;9.43;;;4.90;;
13269;SDS011;6703;51.994;7.570;2023-04-24T08:40:33;9.77;;;5.30;;
13269;SDS011;6703;51.994;7.570;2023-04-24T08:43:01;7.05;;;4.75;;
13269;SDS011;6703;51.994;7.570;2023-04-24T08:45:31;7.63;;;4.55;;
13269;SDS011;6703;51.994;7.570;2023-04-24T08:48:00;7.07;;;4.43;;
13269;SDS011;6703;51.994;7.570;2023-04-24T08:50:29;8.65;;;5.10;;
13269;SDS011;6703;51.994;7.570;2023-04-24T08:52:57;7.53;;;4.47;;
13269;SDS011;6703;51.994;7.570;2023-04-24T08:55:26;10.05;;;4.97;;
13269;SDS011;6703;51.994;7.570;2023-04-24T08:57:54;10.10;;;4.77;;
13269;SDS011;6703;51.994;7.570;2023-04-24T09:00:22;6.47;;;4.40;;
13269;SDS011;6703;51.994;7.570;2023-04-24T09:02:50;7.85;;;4.55;;
13269;SDS011;6703;51.994;7.570;2023-04-24T09:05:18;8.95;;;4.78;;
13269;SDS011;6703;51.994;7.570;2023-04-24T09:07:48;6.45;;;4.25;;
13269;SDS011;6703;51.994;7.570;2023-04-24T09:10:18;6.38;;;4.25;;
13269;SDS011;6703;51.994;7.570;2023-04-24T09:12:48;8.07;;;4.13;;
13269;SDS011;6703;51.994;7.570;2023-04-24T09:15:18;6.68;;;4.25;;
13269;SDS011;6703;51.994;7.570;2023-04-24T09:17:46;5.63;;;3.90;;
13269;SDS011;6703;51.994;7.570;2023-04-24T09:20:14;7.65;;;4.60;;
13269;SDS011;6703;51.994;7.570;2023-04-24T09:22:42;8.43;;;4.63;;
13269;SDS011;6703;51.994;7.570;2023-04-24T09:25:12;10.07;;;4.15;;
13269;SDS011;6703;51.994;7.570;2023-04-24T09:27:43;8.70;;;4.30;;
13269;SDS011;6703;51.994;7.570;2023-04-24T09:30:14;5.60;;;3.15;;
13269;SDS011;6703;51.994;7.570;2023-04-24T09:32:48;6.50;;;3.05;;
13269;SDS011;6703;51.994;7.570;2023-04-24T09:35:16;7.43;;;2.78;;
13269;SDS011;6703;51.994;7.570;2023-04-24T09:37:45;4.63;;;2.85;;
13269;SDS011;6703;51.994;7.570;2023-04-24T09:40:15;3.95;;;1.77;;
13269;SDS011;6703;51.994;7.570;2023-04-24T09:42:44;3.60;;;1.43;;
13269;SDS011;6703;51.994;7.570;2023-04-24T09:45:14;1.42;;;1.10;;
13269;SDS011;6703;51.994;7.570;2023-04-24T09:47:41;1.00;;;0.73;;
13269;SDS011;6703;51.994;7.570;2023-04-24T09:50:34;1.90;;;0.50;;
13269;SDS011;6703;51.994;7.570;2023-04-24T09:53:02;0.00;;;0.00;;
13269;SDS011;6703;51.994;7.570;2023-04-24T09:55:32;0.00;;;0.00;;
13269;SDS011;6703;51.994;7.570;2023-04-24T09:58:00;0.00;;;0.00;;
13269;SDS011;6703;51.994;7.570;2023-04-24T10:00:32;0.00;;;0.00;;
13269;SDS011;6703;51.994;7.570;2023-04-24T10:03:01;0.00;;;0.00;;
13269;SDS011;6703;51.994;7.570;2023-04-24T10:05:45;0.10;;;0.10;;
13269;SDS011;6703;51.994;7.570;2023-04-24T10:08:13;0.10;;;0.10;;
13269;SDS011;6703;51.994;7.570;2023-04-24T10:10:42;0.00;;;0.00;;
13269;SDS011;6703;51.994;7.570;2023-04-24T10:13:10;6.10;;;0.60;;
13269;SDS011;6703;51.994;7.570;2023-04-24T10:15:40;0.00;;;0.00;;
13269;SDS011;6703;51.994;7.570;2023-04-24T10:18:11;0.00;;;0.00;;
13269;SDS011;6703;51.994;7.570;2023-04-24T10:20:39;0.00;;;0.00;;
13269;SDS011;6703;51.994;7.570;2023-04-24T10:23:07;0.00;;;0.00;;
13269;SDS011;6703;51.994;7.570;2023-04-24T10:25:35;0.00;;;0.00;;
13269;SDS011;6703;51.994;7.570;2023-04-24T10:28:04;0.00;;;0.00;;
13269;SDS011;6703;51.994;7.570;2023-04-24T10:30:36;0.00;;;0.00;;
13269;SDS011;6703;51.994;7.570;2023-04-24T10:33:06;0.00;;;0.00;;
13269;SDS011;6703;51.994;7.570;2023-04-24T10:35:37;0.30;;;0.30;;
13269;SDS011;6703;51.994;7.570;2023-04-24T10:38:08;0.00;;;0.00;;
13269;SDS011;6703;51.994;7.570;2023-04-24T10:40:36;1.05;;;0.20;;
13269;SDS011;6703;51.994;7.570;2023-04-24T10:43:04;1.50;;;0.60;;
13269;SDS011;6703;51.994;7.570;2023-04-24T10:45:34;0.00;;;0.00;;
13269;SDS011;6703;51.994;7.570;2023-04-24T10:48:02;0.10;;;0.10;;
13269;SDS011;6703;51.994;7.570;2023-04-24T10:50:43;0.00;;;0.00;;
13269;SDS011;6703;51.994;7.570;2023-04-24T10:53:15;0.10;;;0.10;;
13269;SDS011;6703;51.994;7.570;2023-04-24T10:55:44;0.00;;;0.00;;
13269;SDS011;6703;51.994;7.570;2023-04-24T10:58:13;0.00;;;0.00;;
13269;SDS011;6703;51.994;7.570;2023-04-24T11:00:43;0.00;;;0.00;;
13269;SDS011;6703;51.994;7.570;2023-04-24T11:03:24;0.60;;;0.60;;
13269;SDS011;6703;51.994;7.570;2023-04-24T11:05:59;0.10;;;0.10;;
13269;SDS011;6703;51.994;7.570;2023-04-24T11:08:29;0.00;;;0.00;;
13269;SDS011;6703;51.994;7.570;2023-04-24T11:11:00;0.00;;;0.00;;
13269;SDS011;6703;51.994;7.570;2023-04-24T11:16:29;0.00;;;0.00;;
13269;SDS011;6703;51.994;7.570;2023-04-24T11:19:00;0.00;;;0.00;;
13269;SDS011;6703;51.994;7.570;2023-04-24T11:21:32;0.10;;;0.10;;
13269;SDS011;6703;51.994;7.570;2023-04-24T11:24:23;0.00;;;0.00;;
13269;SDS011;6703;51.994;7.570;2023-04-24T11:26:53;0.60;;;0.30;;
13269;SDS011;6703;51.994;7.570;2023-04-24T11:29:21;0.00;;;0.00;;
13269;SDS011;6703;51.994;7.570;2023-04-24T11:31:51;0.68;;;0.22;;
13269;SDS011;6703;51.994;7.570;2023-04-24T11:34:32;0.00;;;0.00;;
13269;SDS011;6703;51.994;7.570;2023-04-24T11:37:01;0.00;;;0.00;;
13269;SDS011;6703;51.994;7.570;2023-04-24T11:39:35;0.00;;;0.00;;
13269;SDS011;6703;51.994;7.570;2023-04-24T11:42:03;0.20;;;0.20;;
13269;SDS011;6703;51.994;7.570;2023-04-24T11:44:33;0.00;;;0.00;;
13269;SDS011;6703;51.994;7.570;2023-04-24T11:47:03;0.00;;;0.00;;
13269;SDS011;6703;51.994;7.570;2023-04-24T11:49:31;4.10;;;2.90;;
13269;SDS011;6703;51.994;7.570;2023-04-24T11:51:59;0.00;;;0.00;;
13269;SDS011;6703;51.994;7.570;2023-04-24T11:54:28;0.52;;;0.30;;
13269;SDS011;6703;51.994;7.570;2023-04-24T11:56:56;0.00;;;0.00;;
13269;SDS011;6703;51.994;7.570;2023-04-24T11:59:25;0.10;;;0.00;;
13269;SDS011;6703;51.994;7.570;2023-04-24T12:01:52;0.45;;;0.45;;
13269;SDS011;6703;51.994;7.570;2023-04-24T12:04:20;0.00;;;0.00;;
13269;SDS011;6703;51.994;7.570;2023-04-24T12:07:00;0.38;;;0.38;;
13269;SDS011;6703;51.994;7.570;2023-04-24T12:09:32;1.50;;;1.40;;
13269;SDS011;6703;51.994;7.570;2023-04-24T12:12:07;0.00;;;0.00;;
13269;SDS011;6703;51.994;7.570;2023-04-24T12:14:42;0.00;;;0.00;;
13269;SDS011;6703;51.994;7.570;2023-04-24T12:17:11;0.00;;;0.00;;
13269;SDS011;6703;51.994;7.570;2023-04-24T12:19:44;0.20;;;0.20;;
13269;SDS011;6703;51.994;7.570;2023-04-24T12:22:12;0.00;;;0.00;;
13269;SDS011;6703;51.994;7.570;2023-04-24T12:24:57;0.20;;;0.20;;
13269;SDS011;6703;51.994;7.570;2023-04-24T12:27:28;0.20;;;0.20;;
13269;SDS011;6703;51.994;7.570;2023-04-24T12:29:57;0.00;;;0.00;;
13269;SDS011;6703;51.994;7.570;2023-04-24T12:32:25;1.60;;;1.10;;
13269;SDS011;6703;51.994;7.570;2023-04-24T12:34:54;0.05;;;0.05;;
13269;SDS011;6703;51.994;7.570;2023-04-24T12:37:23;0.10;;;0.10;;
13269;SDS011;6703;51.994;7.570;2023-04-24T12:40:03;0.30;;;0.20;;
13269;SDS011;6703;51.994;7.570;2023-04-24T12:42:33;0.32;;;0.32;;
13269;SDS011;6703;51.994;7.570;2023-04-24T12:45:02;0.00;;;0.00;;
13269;SDS011;6703;51.994;7.570;2023-04-24T12:47:31;0.70;;;0.60;;
13269;SDS011;6703;51.994;7.570;2023-04-24T12:50:00;0.20;;;0.20;;
13269;SDS011;6703;51.994;7.570;2023-04-24T12:52:28;0.00;;;0.00;;
13269;SDS011;6703;51.994;7.570;2023-04-24T12:54:56;0.00;;;0.00;;
13269;SDS011;6703;51.994;7.570;2023-04-24T12:57:27;0.00;;;0.00;;
13269;SDS011;6703;51.994;7.570;2023-04-24T12:59:56;0.10;;;0.10;;
13269;SDS011;6703;51.994;7.570;2023-04-24T13:02:45;0.10;;;0.10;;
13269;SDS011;6703;51.994;7.570;2023-04-24T13:05:13;0.00;;;0.00;;
13269;SDS011;6703;51.994;7.570;2023-04-24T13:07:41;0.00;;;0.00;;
13269;SDS011;6703;51.994;7.570;2023-04-24T13:10:09;0.20;;;0.20;;
13269;SDS011;6703;51.994;7.570;2023-04-24T13:12:38;0.00;;;0.00;;
13269;SDS011;6703;51.994;7.570;2023-04-24T13:15:07;0.10;;;0.10;;
13269;SDS011;6703;51.994;7.570;2023-04-24T13:17:35;0.40;;;0.30;;
13269;SDS011;6703;51.994;7.570;2023-04-24T13:20:03;0.90;;;0.10;;
13269;SDS011;6703;51.994;7.570;2023-04-24T13:22:32;0.20;;;0.20;;
13269;SDS011;6703;51.994;7.570;2023-04-24T13:25:00;0.00;;;0.00;;
13269;SDS011;6703;51.994;7.570;2023-04-24T13:27:28;0.20;;;0.20;;
13269;SDS011;6703;51.994;7.570;2023-04-24T13:29:57;0.00;;;0.00;;
13269;SDS011;6703;51.994;7.570;2023-04-24T13:32:25;18.40;;;2.50;;
13269;SDS011;6703;51.994;7.570;2023-04-24T13:34:55;0.00;;;0.00;;
13269;SDS011;6703;51.994;7.570;2023-04-24T13:37:24;1.00;;;0.30;;
13269;SDS011;6703;51.994;7.570;2023-04-24T13:39:51;0.00;;;0.00;;
13269;SDS011;6703;51.994;7.570;2023-04-24T13:42:19;0.20;;;0.20;;
13269;SDS011;6703;51.994;7.570;2023-04-24T13:44:47;0.00;;;0.00;;
13269;SDS011;6703;51.994;7.570;2023-04-24T13:47:16;0.00;;;0.00;;
13269;SDS011;6703;51.994;7.570;2023-04-24T13:49:44;0.00;;;0.00;;
13269;SDS011;6703;51.994;7.570;2023-04-24T13:52:12;0.00;;;0.00;;
13269;SDS011;6703;51.994;7.570;2023-04-24T13:54:40;0.00;;;0.00;;
13269;SDS011;6703;51.994;7.570;2023-04-24T13:57:08;0.70;;;0.40;;
13269;SDS011;6703;51.994;7.570;2023-04-24T13:59:36;0.00;;;0.00;;
13269;SDS011;6703;51.994;7.570;2023-04-24T14:02:04;0.00;;;0.00;;
13269;SDS011;6703;51.994;7.570;2023-04-24T14:04:33;0.00;;;0.00;;
13269;SDS011;6703;51.994;7.570;2023-04-24T14:07:01;0.00;;;0.00;;
13269;SDS011;6703;51.994;7.570;2023-04-24T14:09:29;0.00;;;0.00;;
13269;SDS011;6703;51.994;7.570;2023-04-24T14:11:57;0.10;;;0.10;;
13269;SDS011;6703;51.994;7.570;2023-04-24T14:14:25;0.13;;;0.13;;
13269;SDS011;6703;51.994;7.570;2023-04-24T14:16:52;0.00;;;0.00;;
13269;SDS011;6703;51.994;7.570;2023-04-24T14:19:20;0.00;;;0.00;;
13269;SDS011;6703;51.994;7.570;2023-04-24T14:21:49;0.00;;;0.00;;
13269;SDS011;6703;51.994;7.570;2023-04-24T14:24:18;0.00;;;0.00;;
13269;SDS011;6703;51.994;7.570;2023-04-24T14:26:46;0.00;;;0.00;;
13269;SDS011;6703;51.994;7.570;2023-04-24T14:29:13;0.00;;;0.00;;
13269;SDS011;6703;51.994;7.570;2023-04-24T14:31:42;0.00;;;0.00;;
13269;SDS011;6703;51.994;7.570;2023-04-24T14:34:11;0.00;;;0.00;;
13269;SDS011;6703;51.994;7.570;2023-04-24T14:36:40;0.20;;;0.20;;
13269;SDS011;6703;51.994;7.570;2023-04-24T14:39:09;0.00;;;0.00;;
13269;SDS011;6703;51.994;7.570;2023-04-24T14:41:37;0.00;;;0.00;;
13269;SDS011;6703;51.994;7.570;2023-04-24T14:44:05;0.00;;;0.00;;
13269;SDS011;6703;51.994;7.570;2023-04-24T14:46:33;0.00;;;0.00;;
13269;SDS011;6703;51.994;7.570;2023-04-24T14:49:16;0.00;;;0.00;;
13269;SDS011;6703;51.994;7.570;2023-04-24T14:51:44;0.00;;;0.00;;
13269;SDS011;6703;51.994;7.570;2023-04-24T14:54:13;0.00;;;0.00;;
13269;SDS011;6703;51.994;7.570;2023-04-24T14:56:40;0.00;;;0.00;;
13269;SDS011;6703;51.994;7.570;2023-04-24T14:59:09;0.10;;;0.10;;
13269;SDS011;6703;51.994;7.570;2023-04-24T15:01:37;0.00;;;0.00;;
13269;SDS011;6703;51.994;7.570;2023-04-24T15:04:06;0.00;;;0.00;;
13269;SDS011;6703;51.994;7.570;2023-04-24T15:06:34;0.00;;;0.00;;
13269;SDS011;6703;51.994;7.570;2023-04-24T15:09:01;0.00;;;0.00;;
13269;SDS011;6703;51.994;7.570;2023-04-24T15:11:30;0.00;;;0.00;;
13269;SDS011;6703;51.994;7.570;2023-04-24T15:13:59;0.03;;;0.03;;
13269;SDS011;6703;51.994;7.570;2023-04-24T15:19:00;0.00;;;0.00;;